AirNav   Phillips 66 Aviation Fuel
 
 378 users online  

8G8 Koons Airport
Salem, Ohio, USA

GOING TO SALEM?


FAA INFORMATION EFFECTIVE 12 OCTOBER 2017

Location

FAA Identifier: 8G8
Lat/Long: 40-53-00.2120N / 080-52-59.3050W
40-53.003533N / 080-52.988417W
40.8833922 / -80.8831403
(estimated)
Elevation: 1327 ft. / 404 m (estimated)
Variation: 07W (1985)
From city: 2 miles SW of SALEM, OH
Time zone: UTC -4 (UTC -5 during Standard Time)
Zip code: 44460

Airport Operations

Airport use: Open to the public
Control tower: no
ARTCC: CLEVELAND CENTER
FSS: CLEVELAND FLIGHT SERVICE STATION
NOTAMs facility: CLE (NOTAM-D service available)
Attendance: DAYLIGHT HOURS
Wind indicator: yes
Segmented circle: no

Airport Communications

CTAF: 122.9

Nearby radio navigation aids

VOR radial/distance  VOR name  Freq  Var
ACOr137/19.7AKRON VOR/DME114.4004W
BSVr075/26.4BRIGGS VOR/DME112.4004W
YNGr204/28.5YOUNGSTOWN VORTAC109.0005W
EWCr285/30.7ELLWOOD CITY VORTAC115.8008W
MMJr315/39.3MONTOUR VORTAC112.0008W

 
NDB name  Hdg/Dist  Freq  Var  ID
CASTLE257/22.827209WUCP ..- -.-. .--.
CADIZ016/39.223907WCFX -.-. ..-. -..-

Airport Services

Parking: tiedowns
Airframe service: NONE
Powerplant service: NONE

Runway Information

Runway 9/27

Dimensions: 1850 x 100 ft. / 564 x 30 m
Surface: turf, in good condition
RUNWAY 9  RUNWAY 27
Latitude: 40-53.008667N40-52.998167N
Longitude: 080-53.188833W080-52.787667W
Elevation: 1327.0 ft.1327.0 ft.
Gradient: 1.4%1.4%
Traffic pattern: leftright
Runway end identifier lights: nono
Obstructions: 27 ft. tree, 388 ft. from runway, 72 ft. left of centerline, 14:1 slope to clear76 ft. trees, 125 ft. left of centerline
RY 27 APPROACH RATIO 2:1 DUE TO 76 FT TREES 215 FT FM, 125 FT 'L'.

Airport Ownership and Management from official FAA records

Ownership: Privately-owned
Owner: DAVID & HARRY KOONS
1760 ST RTE 9
SALEM, OH 44460
Phone 330-337-7303
Manager: DAVID & HARRY KOONS
1760 ST RTE 9
SALEM, OH 44460
Phone 330-337-7303
ADDITIONAL PHONE NUMBER 330-337-1780.

Airport Operational Statistics

Aircraft based on the field: 8
Single engine airplanes: 7
Ultralights: 1
    
Aircraft operations: avg 49/week *
98% local general aviation
2% transient general aviation
<1% military
* for 12-month period ending 18 September 2014

Additional Remarks

FOR IFR CLEARANCE CTC CLEVELAND ARTCC (ZOB) 120.775/298.95 OR CALL ZOB 440-774-0223.

Instrument Procedures

There are no published instrument procedures at 8G8.

Some nearby airports with instrument procedures:

38D - Salem Airpark Inc (4 nm N)
3G6 - Tri-City Airport (5 nm W)
4G4 - Youngstown Elser Metro Airport (10 nm NE)
02G - Columbiana County Airport (17 nm SE)
KTSO - Carroll County-Tolson Airport (21 nm SW)
 
Loc | Ops | Rwys | IFR | FBO | Links
Com | Nav | Svcs | Stats | Notes


 
Area around 8G8 (Koons Airport)
 
Road maps at: MapQuest Bing Google
 
Aerial photo
WARNING: Photo may not be current or correct
Aerial photo of 8G8 (Koons Airport)
Photo by Rick Hunt
Photo taken 22-Mar-2015
looking south.

Do you have a better or more recent aerial photo of Koons Airport that you would like to share? If so, please send us your photo.

 
Sectional chart

 
Airport distance calculator
Flying to Koons Airport? Find the distance to fly.

From to 8G8

Sunrise and sunset
Times for 24-Oct-2017
 Local
(UTC-4)
 Zulu
(UTC)
Morning civil twilight07:1811:18
Sunrise07:4611:46
Sunset18:3022:30
Evening civil twilight18:5822:58

Current date and time
Zulu (UTC)  24-Oct-2017 06:13:26
Local (UTC-4)  24-Oct-2017 02:13:26
 
METAR
KUCP 
23nm E 
240556Z AUTO VRB06KT 10SM OVC015 14/13 A2963 RMK AO2 SLP045 60016 T01390128 10139 20128 56009
KBVI 
23nm E 
240047Z 15009G17KT 7SM RA SCT006 BKN016 OVC060 13/12 A2975 RMK LAST
KYNG 
24nm NE 
240551Z 20010G18KT 10SM OVC015 14/12 A2959 RMK AO2 SLP016 60010 T01390117 10139 20128 56011
KPOV 
26nm NW 
240554Z AUTO 21004G15KT 10SM OVC015 14/11 A2958 RMK AO2 T01350110
KCAK 
26nm W 
240551Z 21019G26KT 10SM SCT017 BKN034 OVC044 14/11 A2960 RMK AO2 PK WND 22032/0517 RAB09E23 SLP020 P0000 60015 T01390106 10144 20133 55005
KAKR 
28nm W 
240604Z AUTO 21014G23KT 10SM BKN018 OVC030 14/11 A2959 RMK AO2 T01440111
KPHD 
35nm SW 
240553Z AUTO 21009G19KT 10SM SCT018 BKN022 OVC035 14/11 A2965 RMK AO2 SLP038 60018 T01390111 10144 20139 55001
KPIT 
36nm SE 
240551Z 21013G20KT 10SM SCT015 OVC021 14/12 A2965 RMK AO2 SLP045 60032 T01390122 10139 20128 56005
KBTP 
43nm E 
240556Z AUTO 19010KT 10SM OVC012 13/12 A2966 RMK AO2 SLP046 60046 T01330117 10139 20122 56013
KHLG 
44nm S 
240553Z AUTO 21015G22KT 10SM BKN018 BKN022 OVC033 13/11 A2968 RMK AO2 PK WND 20026/0518 RAB40E53 SLP049 P0001 60035 T01280106 10133 20122 55002
TAF
KBVI 
23nm E 
240530Z 2406/2506 15009G17KT P6SM SCT006 BKN020 FM240700 20010G19KT P6SM BKN015 FM241400 21007KT P6SM VCSH BKN025 FM241800 20011G20KT P6SM VCSH BKN025 FM242200 21010G18KT P6SM BKN035 FM242300 22009KT P6SM SCT090 AMD NOT SKED
KYNG 
24nm NE 
240539Z 2406/2506 18015G25KT P6SM OVC015 FM240730 22015G25KT P6SM BKN012 OVC035 TEMPO 2408/2412 5SM -SHRA OVC015 FM241200 22015G25KT P6SM SCT012 OVC040 TEMPO 2412/2416 5SM -SHRA OVC012 FM241600 22015G25KT P6SM BKN025 FM241800 22015G25KT P6SM BKN035
KCAK 
26nm W 
240539Z 2406/2506 24015G25KT P6SM BKN012 OVC035 TEMPO 2406/2409 5SM -SHRA OVC015 FM241200 22015G25KT P6SM SCT012 OVC040 TEMPO 2412/2416 5SM -SHRA OVC012 FM241600 22015G25KT P6SM BKN025 FM241800 22015G25KT P6SM BKN035
NOTAMs
Click for the latest NOTAMs
NOTAMs are issued by the DoD/FAA and will open in a separate window not controlled by AirNav.

 

 
 

Would you like to see your business listed on this page?

 If your business provides an interesting product or service to pilots, flight crews, aircraft, or users of the Koons Airport, you should consider listing it here.  To start the listing process, click on the button below
 
Add a business
 

Other Pages about Koons Airport

Update a link
 
Copyright © AirNav, LLC. All rights reserved. Privacy Policy  Contact